createdAt,value
2023-05-25T00:00:12.559Z,99.90
2023-05-25T00:02:39.955Z,99.90
2023-05-25T00:05:08.906Z,99.90
2023-05-25T00:07:35.666Z,99.90
2023-05-25T00:10:02.458Z,99.90
2023-05-25T00:12:29.208Z,99.90
2023-05-25T00:14:56.005Z,99.90
2023-05-25T00:17:24.174Z,99.90
2023-05-25T00:19:51.576Z,99.90
2023-05-25T00:22:18.426Z,99.90
2023-05-25T00:24:45.160Z,99.90
2023-05-25T00:27:11.900Z,99.90
2023-05-25T00:29:38.639Z,99.90
2023-05-25T00:32:05.773Z,99.90
2023-05-25T00:34:32.556Z,99.90
2023-05-25T00:36:59.352Z,99.90
2023-05-25T00:39:26.186Z,99.90
2023-05-25T00:41:54.476Z,99.90
2023-05-25T00:44:21.911Z,99.90
2023-05-25T00:46:50.673Z,99.90
2023-05-25T00:49:19.101Z,99.90
2023-05-25T00:51:47.698Z,99.90
2023-05-25T00:54:16.129Z,99.90
2023-05-25T00:56:51.443Z,99.90
2023-05-25T00:59:26.849Z,99.90
2023-05-25T01:01:54.636Z,99.90
2023-05-25T01:04:22.740Z,99.90
2023-05-25T01:06:52.723Z,99.90
2023-05-25T01:09:22.229Z,99.90
2023-05-25T01:11:51.382Z,99.90
2023-05-25T01:14:21.984Z,99.90
2023-05-25T01:16:49.834Z,99.90
2023-05-25T01:19:17.100Z,99.90
2023-05-25T01:21:56.277Z,99.90
2023-05-25T01:24:32.460Z,99.90
2023-05-25T01:27:08.866Z,99.90
2023-05-25T01:29:36.539Z,99.90
2023-05-25T01:32:04.480Z,99.90
2023-05-25T01:34:32.546Z,99.90
2023-05-25T01:36:59.698Z,99.90
2023-05-25T01:39:26.421Z,99.90
2023-05-25T01:41:53.175Z,99.90
2023-05-25T01:44:20.895Z,99.90
2023-05-25T01:46:53.287Z,99.90
2023-05-25T01:49:30.897Z,99.90
2023-05-25T01:52:32.433Z,99.90
2023-05-25T01:55:06.381Z,99.90
2023-05-25T01:57:37.481Z,99.90
2023-05-25T02:00:05.412Z,99.90
2023-05-25T02:02:33.660Z,99.90
2023-05-25T02:05:01.063Z,99.90
2023-05-25T02:07:27.873Z,99.90
2023-05-25T02:09:54.626Z,99.90
2023-05-25T02:12:21.494Z,99.90
2023-05-25T02:14:48.827Z,99.90
2023-05-25T02:17:17.901Z,99.90
2023-05-25T02:19:45.436Z,99.90
2023-05-25T02:22:12.229Z,99.90
2023-05-25T02:24:38.983Z,99.90
2023-05-25T02:27:06.496Z,99.90
2023-05-25T02:29:33.341Z,99.90
2023-05-25T02:32:00.048Z,99.90
2023-05-25T02:34:26.829Z,99.90
2023-05-25T02:36:53.610Z,99.90
2023-05-25T02:39:20.349Z,99.90
2023-05-25T02:41:47.112Z,99.90
2023-05-25T02:44:13.888Z,99.90
2023-05-25T02:46:40.697Z,99.90
2023-05-25T02:49:07.468Z,99.90
2023-05-25T02:51:34.228Z,99.90
2023-05-25T02:54:01.243Z,99.90
2023-05-25T02:56:28.261Z,99.90
2023-05-25T02:58:55.047Z,99.90
2023-05-25T03:01:21.892Z,99.90
2023-05-25T03:03:52.498Z,99.90
2023-05-25T03:06:21.552Z,99.90
2023-05-25T03:08:48.549Z,99.90
2023-05-25T03:11:15.535Z,99.90
2023-05-25T03:13:42.228Z,99.90
2023-05-25T03:16:09.029Z,99.90
2023-05-25T03:18:36.625Z,99.90
2023-05-25T03:21:03.381Z,99.90
2023-05-25T03:23:30.302Z,99.90
2023-05-25T03:25:58.059Z,99.90
2023-05-25T03:28:24.833Z,99.90
2023-05-25T03:30:51.535Z,99.90
2023-05-25T03:33:18.243Z,99.90
2023-05-25T03:35:45.256Z,99.90
2023-05-25T03:38:12.161Z,99.90
2023-05-25T03:40:38.873Z,99.90
2023-05-25T03:43:05.610Z,99.90
2023-05-25T03:45:32.394Z,99.90
2023-05-25T03:47:59.173Z,99.90
2023-05-25T03:50:25.900Z,99.90
2023-05-25T03:52:52.609Z,99.90
2023-05-25T03:55:19.600Z,99.90
2023-05-25T03:57:46.407Z,99.90
2023-05-25T04:00:15.718Z,99.90
2023-05-25T04:02:42.700Z,99.90
2023-05-25T04:05:09.849Z,99.90
2023-05-25T04:07:37.062Z,99.90
2023-05-25T04:10:04.681Z,99.90
2023-05-25T04:12:32.349Z,99.90
2023-05-25T04:14:59.325Z,99.90
2023-05-25T04:17:26.333Z,99.90
2023-05-25T04:19:53.283Z,99.90
2023-05-25T04:22:20.021Z,99.90
2023-05-25T04:24:46.906Z,99.90
2023-05-25T04:27:14.380Z,99.90
2023-05-25T04:29:44.219Z,99.90
2023-05-25T04:32:10.950Z,99.90
2023-05-25T04:34:37.776Z,99.90
2023-05-25T04:37:05.660Z,99.90
2023-05-25T04:39:32.835Z,99.90
2023-05-25T04:42:01.619Z,99.90
2023-05-25T04:44:29.803Z,99.90
2023-05-25T04:46:56.677Z,99.90
2023-05-25T04:49:23.433Z,99.90
2023-05-25T04:51:50.261Z,99.90
2023-05-25T04:54:17.457Z,99.90
2023-05-25T04:56:44.305Z,99.90
2023-05-25T04:59:11.334Z,99.90
2023-05-25T05:01:42.165Z,99.90
2023-05-25T05:04:09.171Z,99.90
2023-05-25T05:06:36.636Z,99.90
2023-05-25T05:09:03.689Z,99.90
2023-05-25T05:11:30.672Z,99.90
2023-05-25T05:13:57.626Z,99.90
2023-05-25T05:16:24.475Z,99.90
2023-05-25T05:18:51.288Z,99.90
2023-05-25T05:21:18.235Z,99.90
2023-05-25T05:23:45.416Z,99.90
2023-05-25T05:26:15.099Z,99.90
2023-05-25T05:28:41.858Z,99.90
2023-05-25T05:31:08.672Z,99.90
2023-05-25T05:33:35.643Z,99.90
2023-05-25T05:36:03.699Z,99.90
2023-05-25T05:38:30.485Z,99.90
2023-05-25T05:40:57.189Z,99.90
2023-05-25T05:43:23.951Z,1.00
2023-05-25T05:45:50.669Z,1.00
2023-05-25T05:48:17.399Z,1.00
2023-05-25T05:50:44.215Z,1.00
2023-05-25T05:53:11.107Z,1.00
2023-05-25T05:55:37.951Z,1.00
2023-05-25T05:58:04.725Z,1.00
2023-05-25T06:00:31.887Z,1.00
2023-05-25T06:02:58.856Z,1.00
2023-05-25T06:05:25.778Z,1.00
2023-05-25T06:07:52.716Z,1.00
2023-05-25T06:10:19.574Z,1.00
2023-05-25T06:12:46.442Z,1.00
2023-05-25T06:15:13.270Z,1.00
2023-05-25T06:17:40.174Z,1.00
2023-05-25T06:20:07.511Z,1.00
2023-05-25T06:22:34.403Z,1.00
2023-05-25T06:25:04.292Z,1.00
2023-05-25T06:27:31.019Z,1.00
2023-05-25T06:29:57.762Z,1.00
2023-05-25T06:32:24.507Z,1.00
2023-05-25T06:34:51.212Z,1.00
2023-05-25T06:37:17.960Z,1.00
2023-05-25T06:39:44.741Z,1.00
2023-05-25T06:42:11.780Z,1.00
2023-05-25T06:44:38.631Z,1.00
2023-05-25T06:47:05.599Z,1.00
2023-05-25T06:49:32.504Z,1.00
2023-05-25T06:51:59.319Z,1.00
2023-05-25T06:54:26.764Z,1.00
2023-05-25T06:56:53.579Z,1.00
2023-05-25T06:59:20.450Z,1.00
2023-05-25T07:01:47.598Z,1.00
2023-05-25T07:04:14.503Z,1.00
2023-05-25T07:06:41.302Z,1.00
2023-05-25T07:09:08.019Z,1.00
2023-05-25T07:11:34.795Z,1.00
2023-05-25T07:14:01.576Z,1.00
2023-05-25T07:16:28.441Z,1.00
2023-05-25T07:18:55.238Z,1.00
2023-05-25T07:21:21.964Z,1.00
2023-05-25T07:23:48.677Z,1.00
2023-05-25T07:26:15.706Z,1.00
2023-05-25T07:28:42.445Z,1.00
2023-05-25T07:31:10.516Z,1.00
2023-05-25T07:33:37.291Z,1.00
2023-05-25T07:36:04.251Z,1.00
2023-05-25T07:38:31.172Z,1.00
2023-05-25T07:40:57.969Z,1.00
2023-05-25T07:43:24.903Z,1.00
2023-05-25T07:45:51.683Z,1.00
2023-05-25T07:48:18.626Z,1.00
2023-05-25T07:50:45.687Z,1.00
2023-05-25T07:53:12.378Z,1.00
2023-05-25T07:55:39.126Z,1.00
2023-05-25T07:58:07.411Z,1.00
2023-05-25T08:00:34.233Z,1.00
2023-05-25T08:03:02.704Z,1.00
2023-05-25T08:05:29.760Z,1.00
2023-05-25T08:07:56.589Z,1.00
2023-05-25T08:10:23.702Z,1.00
2023-05-25T08:12:52.328Z,1.00
2023-05-25T08:15:19.443Z,1.00
2023-05-25T08:17:46.582Z,1.00
2023-05-25T08:20:14.290Z,1.00
2023-05-25T08:22:41.169Z,1.00
2023-05-25T08:25:08.343Z,1.00
2023-05-25T08:27:36.444Z,1.00
2023-05-25T08:30:05.962Z,1.00
2023-05-25T08:32:32.970Z,1.00
2023-05-25T08:34:59.745Z,1.00
2023-05-25T08:37:26.455Z,1.00
2023-05-25T08:39:53.550Z,1.00
2023-05-25T08:42:20.824Z,1.00
2023-05-25T08:44:47.632Z,1.00
2023-05-25T08:47:16.692Z,1.00
2023-05-25T08:49:45.275Z,1.00
2023-05-25T08:52:14.872Z,1.00
2023-05-25T08:54:45.045Z,1.00
2023-05-25T08:57:20.846Z,1.00
2023-05-25T08:59:52.100Z,1.00
2023-05-25T09:02:21.982Z,1.00
2023-05-25T09:04:48.863Z,1.00
2023-05-25T09:07:16.104Z,1.00
2023-05-25T09:09:43.532Z,1.00
2023-05-25T09:12:10.939Z,1.00
2023-05-25T09:14:38.051Z,1.00
2023-05-25T09:17:04.937Z,1.00
2023-05-25T09:19:31.646Z,1.00
2023-05-25T09:22:14.218Z,1.00
2023-05-25T09:24:44.550Z,1.00
2023-05-25T09:27:17.359Z,1.00
2023-05-25T09:29:44.250Z,1.00
2023-05-25T09:32:11.572Z,1.00
2023-05-25T09:34:38.469Z,1.00
2023-05-25T09:37:13.348Z,1.00
2023-05-25T09:39:41.848Z,1.00
2023-05-25T09:42:09.073Z,1.00
2023-05-25T09:44:35.975Z,1.00
2023-05-25T09:47:04.378Z,1.00
2023-05-25T09:49:31.189Z,1.00
2023-05-25T09:51:57.899Z,1.00
2023-05-25T09:54:26.508Z,1.00
2023-05-25T09:56:54.081Z,1.00
2023-05-25T09:59:22.870Z,1.00
2023-05-25T10:01:53.535Z,1.00
2023-05-25T10:04:20.955Z,1.00
2023-05-25T10:06:51.946Z,1.00
2023-05-25T10:09:19.800Z,1.00
2023-05-25T10:11:48.674Z,1.00
2023-05-25T10:14:22.826Z,1.00
2023-05-25T10:16:55.845Z,1.00
2023-05-25T10:19:37.903Z,1.00
2023-05-25T10:22:13.446Z,1.00
2023-05-25T10:25:16.546Z,1.00
2023-05-25T10:27:48.080Z,1.00
2023-05-25T10:30:15.684Z,1.00
2023-05-25T10:32:44.951Z,1.00
2023-05-25T10:35:12.228Z,1.00
2023-05-25T10:37:40.186Z,1.00
2023-05-25T10:40:10.934Z,1.00
2023-05-25T10:42:38.727Z,1.00
2023-05-25T10:45:09.552Z,1.00
2023-05-25T10:47:42.016Z,1.00
2023-05-25T10:50:18.837Z,1.00
2023-05-25T10:52:45.862Z,1.00
2023-05-25T10:55:12.599Z,1.00
2023-05-25T10:57:39.381Z,1.00
2023-05-25T11:00:08.856Z,1.00
2023-05-25T11:02:54.988Z,1.00
2023-05-25T11:05:28.742Z,1.00
2023-05-25T11:07:59.796Z,1.00
2023-05-25T11:10:41.537Z,1.00
2023-05-25T11:13:43.865Z,1.00
2023-05-25T11:16:20.701Z,1.00
2023-05-25T11:18:53.347Z,1.00
2023-05-25T11:21:45.351Z,1.00
2023-05-25T11:24:14.500Z,1.00
2023-05-25T11:26:56.511Z,1.00
2023-05-25T11:29:25.407Z,1.00
2023-05-25T11:31:56.433Z,1.00
2023-05-25T11:34:25.014Z,1.00
2023-05-25T11:37:02.433Z,1.00
2023-05-25T11:39:31.002Z,1.00
2023-05-25T11:42:04.291Z,1.00
2023-05-25T11:44:36.283Z,1.00
2023-05-25T11:47:08.962Z,1.00
2023-05-25T11:49:41.693Z,1.00
2023-05-25T11:52:08.518Z,1.00
2023-05-25T11:54:36.164Z,1.00
2023-05-25T11:57:03.705Z,1.00
2023-05-25T11:59:32.580Z,1.00
2023-05-25T12:02:03.881Z,1.00
2023-05-25T12:04:34.936Z,1.00
2023-05-25T12:07:03.739Z,1.00
2023-05-25T12:09:30.907Z,1.00
2023-05-25T12:11:58.054Z,1.00
2023-05-25T12:14:25.352Z,1.00
2023-05-25T12:16:52.768Z,1.00
2023-05-25T12:19:20.016Z,1.00
2023-05-25T12:21:47.820Z,1.00
2023-05-25T12:24:14.712Z,1.00
2023-05-25T12:26:57.338Z,1.00
2023-05-25T12:29:25.698Z,1.00
2023-05-25T12:31:52.766Z,1.00
2023-05-25T12:34:20.990Z,1.00
2023-05-25T12:36:52.385Z,1.00
2023-05-25T12:39:39.570Z,1.00
2023-05-25T12:42:14.325Z,1.00
2023-05-25T12:44:42.604Z,1.00
2023-05-25T12:47:20.756Z,1.00
2023-05-25T12:50:10.043Z,1.00
2023-05-25T12:52:44.088Z,1.00
2023-05-25T12:55:30.493Z,1.00
2023-05-25T12:58:05.562Z,1.00
2023-05-25T13:00:37.388Z,1.00
2023-05-25T13:03:07.561Z,1.00
2023-05-25T13:05:36.970Z,1.00
2023-05-25T13:08:05.333Z,1.00
2023-05-25T13:10:33.084Z,1.00
2023-05-25T13:13:00.723Z,1.00
2023-05-25T13:15:28.542Z,1.00
2023-05-25T13:17:58.428Z,1.00
2023-05-25T13:20:27.181Z,1.00
2023-05-25T13:22:57.882Z,1.00
2023-05-25T13:25:27.418Z,1.00
2023-05-25T13:27:55.903Z,1.00
2023-05-25T13:30:22.766Z,1.00
2023-05-25T13:32:51.600Z,1.00
2023-05-25T13:35:24.037Z,1.00
2023-05-25T13:37:51.397Z,1.00
2023-05-25T13:40:19.098Z,1.00
2023-05-25T13:42:45.935Z,1.00
2023-05-25T13:45:13.832Z,1.00
2023-05-25T13:47:43.551Z,1.00
2023-05-25T13:50:11.090Z,1.00
2023-05-25T13:52:37.996Z,1.00
2023-05-25T13:55:05.161Z,1.00
2023-05-25T13:57:31.876Z,1.00
2023-05-25T13:59:58.641Z,1.00
2023-05-25T14:02:25.408Z,1.00
2023-05-25T14:04:52.132Z,1.00
2023-05-25T14:07:18.891Z,1.00
2023-05-25T14:09:45.599Z,1.00
2023-05-25T14:12:14.207Z,1.00
2023-05-25T14:14:41.153Z,1.00
2023-05-25T14:17:07.890Z,1.00
2023-05-25T14:19:35.355Z,1.00
2023-05-25T14:22:12.346Z,1.00
2023-05-25T14:24:39.824Z,1.00
2023-05-25T14:27:09.587Z,1.00
2023-05-25T14:29:36.394Z,1.00
2023-05-25T14:32:03.413Z,1.00
2023-05-25T14:34:30.179Z,1.00
2023-05-25T14:36:56.959Z,1.00
2023-05-25T14:39:23.689Z,1.00
2023-05-25T14:41:50.551Z,1.00
2023-05-25T14:44:17.236Z,1.00
2023-05-25T14:46:44.013Z,1.00
2023-05-25T14:49:10.897Z,1.00
2023-05-25T14:51:38.185Z,1.00
2023-05-25T14:54:07.217Z,1.00
2023-05-25T14:56:34.255Z,1.00
2023-05-25T14:59:01.096Z,1.00
2023-05-25T15:01:29.236Z,1.00
2023-05-25T15:03:56.473Z,1.00
2023-05-25T15:06:23.390Z,1.00
2023-05-25T15:08:50.277Z,1.00
2023-05-25T15:11:17.986Z,1.00
2023-05-25T15:13:44.903Z,1.00
2023-05-25T15:16:15.922Z,1.00
2023-05-25T15:18:43.241Z,1.00
2023-05-25T15:21:10.086Z,1.00
2023-05-25T15:23:37.199Z,1.00
2023-05-25T15:26:04.342Z,1.00
2023-05-25T15:28:31.508Z,1.00
2023-05-25T15:30:59.992Z,1.00
2023-05-25T15:33:43.695Z,1.00
2023-05-25T15:36:15.638Z,1.00
2023-05-25T15:38:43.317Z,1.00
2023-05-25T15:41:11.379Z,1.00
2023-05-25T15:43:38.100Z,1.00
2023-05-25T15:46:05.012Z,1.00
2023-05-25T15:48:31.780Z,1.00
2023-05-25T15:50:58.565Z,1.00
2023-05-25T15:53:26.079Z,1.00
2023-05-25T15:55:52.777Z,1.00
2023-05-25T15:58:19.546Z,1.00
2023-05-25T16:00:48.459Z,1.00
2023-05-25T16:03:15.279Z,1.00
2023-05-25T16:05:42.154Z,1.00
2023-05-25T16:08:08.977Z,1.00
2023-05-25T16:10:35.748Z,1.00
2023-05-25T16:13:02.468Z,1.00
2023-05-25T16:15:29.174Z,1.00
2023-05-25T16:17:55.956Z,1.00
2023-05-25T16:20:22.729Z,1.00
2023-05-25T16:22:49.601Z,1.00
2023-05-25T16:25:16.311Z,1.00
2023-05-25T16:27:43.194Z,1.00
2023-05-25T16:30:12.523Z,1.00
2023-05-25T16:32:40.285Z,1.00
2023-05-25T16:35:07.389Z,1.00
2023-05-25T16:37:34.093Z,1.00
2023-05-25T16:40:00.909Z,1.00
2023-05-25T16:42:27.590Z,1.00
2023-05-25T16:44:54.342Z,1.00
2023-05-25T16:47:21.562Z,1.00
2023-05-25T16:49:48.802Z,1.00
2023-05-25T16:52:15.501Z,1.00
2023-05-25T16:54:42.240Z,1.00
2023-05-25T16:57:11.982Z,1.00
2023-05-25T16:59:39.290Z,1.00
2023-05-25T17:02:06.483Z,1.00
2023-05-25T17:04:33.445Z,1.00
2023-05-25T17:07:00.189Z,1.00
2023-05-25T17:09:26.916Z,1.00
2023-05-25T17:11:54.113Z,1.00
2023-05-25T17:14:21.502Z,1.00
2023-05-25T17:16:48.312Z,1.00
2023-05-25T17:19:15.257Z,1.00
2023-05-25T17:21:42.446Z,1.00
2023-05-25T17:24:09.249Z,1.00
2023-05-25T17:26:36.050Z,1.00
2023-05-25T17:29:02.981Z,1.00
2023-05-25T17:31:29.725Z,1.00
2023-05-25T17:33:56.814Z,1.00
2023-05-25T17:36:23.774Z,1.00
2023-05-25T17:38:50.813Z,1.00
2023-05-25T17:41:17.600Z,1.00
2023-05-25T17:43:44.333Z,1.00
2023-05-25T17:46:11.230Z,1.00
2023-05-25T17:48:38.162Z,1.00
2023-05-25T17:51:05.001Z,1.00
2023-05-25T17:53:31.822Z,1.00
2023-05-25T17:55:59.269Z,1.00
2023-05-25T17:58:25.994Z,1.00
2023-05-25T18:00:52.855Z,1.00
2023-05-25T18:03:19.706Z,1.00
2023-05-25T18:05:46.693Z,1.00
2023-05-25T18:08:13.678Z,1.00
2023-05-25T18:10:40.542Z,1.00
2023-05-25T18:13:07.304Z,1.00
2023-05-25T18:15:34.288Z,1.00
2023-05-25T18:18:01.234Z,1.00
2023-05-25T18:20:28.249Z,1.00
2023-05-25T18:22:55.101Z,1.00
2023-05-25T18:25:21.908Z,1.00
2023-05-25T18:27:48.660Z,1.00
2023-05-25T18:30:16.054Z,1.00
2023-05-25T18:32:43.005Z,1.00
2023-05-25T18:35:09.842Z,1.00
2023-05-25T18:37:36.693Z,1.00
2023-05-25T18:40:04.106Z,1.00
2023-05-25T18:42:30.821Z,1.00
2023-05-25T18:44:57.517Z,1.00
2023-05-25T18:47:24.289Z,1.00
2023-05-25T18:49:51.710Z,1.00
2023-05-25T18:52:18.431Z,1.00
2023-05-25T18:54:45.257Z,1.00
2023-05-25T18:57:12.103Z,1.00
2023-05-25T18:59:38.843Z,1.00
2023-05-25T19:02:06.453Z,1.00
2023-05-25T19:04:33.696Z,1.00
2023-05-25T19:07:00.408Z,1.00
2023-05-25T19:09:27.179Z,1.00
2023-05-25T19:11:53.935Z,1.00
2023-05-25T19:14:21.722Z,1.00
2023-05-25T19:16:49.251Z,1.00
2023-05-25T19:19:16.175Z,1.00
2023-05-25T19:21:42.858Z,1.00
2023-05-25T19:24:10.017Z,1.00
2023-05-25T19:26:37.869Z,1.00
2023-05-25T19:29:04.841Z,1.00
2023-05-25T19:31:31.712Z,1.00
2023-05-25T19:33:58.543Z,1.00
2023-05-25T19:36:25.801Z,1.00
2023-05-25T19:38:52.498Z,1.00
2023-05-25T19:41:19.470Z,1.00
2023-05-25T19:43:47.084Z,17.10
2023-05-25T19:46:13.907Z,99.90
2023-05-25T19:48:41.100Z,1.00
2023-05-25T19:51:08.466Z,2.60
2023-05-25T19:53:35.275Z,5.20
2023-05-25T19:56:03.284Z,10.80
2023-05-25T19:58:30.063Z,43.20
2023-05-25T20:00:57.109Z,42.30
2023-05-25T20:03:24.078Z,90.30
2023-05-25T20:05:50.836Z,99.90
2023-05-25T20:08:17.657Z,99.90
2023-05-25T20:10:45.093Z,99.90
2023-05-25T20:13:12.543Z,99.90
2023-05-25T20:15:39.311Z,99.90
2023-05-25T20:18:06.139Z,99.90
2023-05-25T20:20:32.909Z,99.90
2023-05-25T20:22:59.731Z,99.90
2023-05-25T20:25:26.490Z,99.90
2023-05-25T20:27:53.207Z,99.90
2023-05-25T20:30:20.417Z,99.90
2023-05-25T20:32:47.276Z,99.90
2023-05-25T20:35:14.072Z,99.90
2023-05-25T20:37:41.992Z,99.90
2023-05-25T20:40:09.482Z,99.90
2023-05-25T20:42:36.266Z,99.90
2023-05-25T20:45:03.809Z,99.90
2023-05-25T20:47:31.563Z,99.90
2023-05-25T20:49:58.278Z,1.00
2023-05-25T20:52:24.963Z,99.90
2023-05-25T20:54:51.700Z,99.90
2023-05-25T20:57:18.474Z,59.90
2023-05-25T20:59:45.359Z,1.00
2023-05-25T21:02:12.139Z,1.00
2023-05-25T21:04:38.841Z,29.40
2023-05-25T21:07:05.736Z,1.00
2023-05-25T21:09:32.452Z,99.90
2023-05-25T21:11:59.272Z,99.90
2023-05-25T21:14:26.390Z,1.00
2023-05-25T21:16:53.137Z,99.90
2023-05-25T21:19:19.875Z,1.00
2023-05-25T21:21:46.643Z,99.90
2023-05-25T21:24:13.347Z,99.90
2023-05-25T21:26:40.055Z,1.00
2023-05-25T21:29:07.765Z,1.00
2023-05-25T21:31:34.701Z,99.90
2023-05-25T21:34:01.976Z,99.90
2023-05-25T21:36:28.804Z,1.00
2023-05-25T21:38:55.617Z,99.90
2023-05-25T21:41:23.320Z,99.90
2023-05-25T21:43:50.760Z,99.90
2023-05-25T21:46:17.522Z,99.90
2023-05-25T21:48:44.289Z,99.90
2023-05-25T21:51:11.151Z,99.90
2023-05-25T21:53:37.910Z,99.90
2023-05-25T21:56:04.681Z,99.90
2023-05-25T21:58:31.383Z,99.90
2023-05-25T22:00:58.146Z,99.90
2023-05-25T22:03:24.936Z,99.90
2023-05-25T22:05:51.692Z,99.90
2023-05-25T22:08:18.405Z,99.90
2023-05-25T22:10:45.272Z,99.90
2023-05-25T22:13:12.006Z,99.90
2023-05-25T22:15:38.740Z,99.90
2023-05-25T22:18:06.190Z,99.90
2023-05-25T22:20:33.296Z,99.90
2023-05-25T22:23:00.155Z,99.90
2023-05-25T22:25:26.851Z,99.90
2023-05-25T22:27:53.644Z,99.90
2023-05-25T22:30:20.636Z,1.00
2023-05-25T22:32:47.389Z,18.30
2023-05-25T22:35:14.235Z,99.90
2023-05-25T22:37:41.019Z,99.90
2023-05-25T22:40:08.245Z,99.90
2023-05-25T22:42:35.042Z,99.90
2023-05-25T22:45:01.747Z,99.90
2023-05-25T22:47:28.471Z,99.90
2023-05-25T22:49:55.245Z,99.90
2023-05-25T22:52:21.951Z,99.90
2023-05-25T22:54:48.669Z,99.90
2023-05-25T22:57:16.010Z,99.90
2023-05-25T22:59:42.695Z,99.90
2023-05-25T23:02:09.513Z,56.70
2023-05-25T23:04:36.449Z,99.90
2023-05-25T23:07:03.275Z,99.90
2023-05-25T23:09:29.953Z,99.90
2023-05-25T23:11:56.663Z,1.00
2023-05-25T23:14:23.353Z,1.00
2023-05-25T23:16:50.154Z,47.00
2023-05-25T23:19:17.879Z,99.90
2023-05-25T23:21:44.606Z,22.20
2023-05-25T23:24:11.423Z,1.00
2023-05-25T23:26:38.139Z,99.90
2023-05-25T23:29:05.007Z,1.00
2023-05-25T23:31:31.822Z,99.90
2023-05-25T23:33:58.625Z,99.90
2023-05-25T23:36:28.328Z,99.90
2023-05-25T23:38:55.375Z,50.90
2023-05-25T23:41:23.042Z,2.90
2023-05-25T23:43:49.843Z,1.00
2023-05-25T23:46:17.338Z,1.00
2023-05-25T23:48:45.572Z,1.00
2023-05-25T23:51:12.547Z,1.00
2023-05-25T23:53:39.569Z,1.00
2023-05-25T23:56:06.647Z,1.00
2023-05-25T23:58:33.634Z,1.00
